sensor_id;sensor_type;location;lat;lon;timestamp;temperature;humidity
67157;SHT31;54086;50.126;8.710;2023-12-20T00:01:02;5.20;99.83
67157;SHT31;54086;50.126;8.710;2023-12-20T00:03:27;5.24;99.80
67157;SHT31;54086;50.126;8.710;2023-12-20T00:05:53;5.22;99.84
67157;SHT31;54086;50.126;8.710;2023-12-20T00:08:18;5.25;99.78
67157;SHT31;54086;50.126;8.710;2023-12-20T00:10:44;5.22;99.68
67157;SHT31;54086;50.126;8.710;2023-12-20T00:13:10;5.15;99.70
67157;SHT31;54086;50.126;8.710;2023-12-20T00:15:36;5.14;99.87
67157;SHT31;54086;50.126;8.710;2023-12-20T00:18:01;5.11;99.91
67157;SHT31;54086;50.126;8.710;2023-12-20T00:20:28;5.07;99.85
67157;SHT31;54086;50.126;8.710;2023-12-20T00:22:57;5.04;99.74
67157;SHT31;54086;50.126;8.710;2023-12-20T00:25:25;5.07;99.84
67157;SHT31;54086;50.126;8.710;2023-12-20T00:27:51;5.05;99.90
67157;SHT31;54086;50.126;8.710;2023-12-20T00:30:17;5.07;99.88
67157;SHT31;54086;50.126;8.710;2023-12-20T00:32:43;5.04;99.92
67157;SHT31;54086;50.126;8.710;2023-12-20T00:35:16;5.05;99.96
67157;SHT31;54086;50.126;8.710;2023-12-20T00:37:42;5.02;99.92
67157;SHT31;54086;50.126;8.710;2023-12-20T00:40:09;5.05;99.97
67157;SHT31;54086;50.126;8.710;2023-12-20T00:42:35;5.05;99.96
67157;SHT31;54086;50.126;8.710;2023-12-20T00:45:02;5.04;99.85
67157;SHT31;54086;50.126;8.710;2023-12-20T00:47:30;5.07;99.88
67157;SHT31;54086;50.126;8.710;2023-12-20T00:49:55;5.14;99.87
67157;SHT31;54086;50.126;8.710;2023-12-20T00:52:33;5.08;99.78
67157;SHT31;54086;50.126;8.710;2023-12-20T00:54:59;5.07;99.81
67157;SHT31;54086;50.126;8.710;2023-12-20T00:57:24;5.10;99.85
67157;SHT31;54086;50.126;8.710;2023-12-20T00:59:50;5.12;99.80
67157;SHT31;54086;50.126;8.710;2023-12-20T01:02:16;5.15;99.91
67157;SHT31;54086;50.126;8.710;2023-12-20T01:04:41;5.18;99.89
67157;SHT31;54086;50.126;8.710;2023-12-20T01:07:07;5.15;99.80
67157;SHT31;54086;50.126;8.710;2023-12-20T01:09:33;5.10;99.61
67157;SHT31;54086;50.126;8.710;2023-12-20T01:11:58;5.11;99.63
67157;SHT31;54086;50.126;8.710;2023-12-20T01:14:24;5.15;99.77
67157;SHT31;54086;50.126;8.710;2023-12-20T01:16:50;5.17;99.67
67157;SHT31;54086;50.126;8.710;2023-12-20T01:19:15;5.18;99.77
67157;SHT31;54086;50.126;8.710;2023-12-20T01:21:41;5.22;99.65
67157;SHT31;54086;50.126;8.710;2023-12-20T01:24:06;5.24;99.68
67157;SHT31;54086;50.126;8.710;2023-12-20T01:26:32;5.24;99.54
67157;SHT31;54086;50.126;8.710;2023-12-20T01:28:57;5.20;99.54
67157;SHT31;54086;50.126;8.710;2023-12-20T01:31:23;5.22;99.59
67157;SHT31;54086;50.126;8.710;2023-12-20T01:33:48;5.21;99.64
67157;SHT31;54086;50.126;8.710;2023-12-20T01:36:16;5.21;99.46
67157;SHT31;54086;50.126;8.710;2023-12-20T01:38:42;5.22;99.47
67157;SHT31;54086;50.126;8.710;2023-12-20T01:41:07;5.20;99.28
67157;SHT31;54086;50.126;8.710;2023-12-20T01:43:32;5.20;99.51
67157;SHT31;54086;50.126;8.710;2023-12-20T01:45:58;5.27;99.52
67157;SHT31;54086;50.126;8.710;2023-12-20T01:48:24;5.22;99.50
67157;SHT31;54086;50.126;8.710;2023-12-20T01:50:51;5.21;99.41
67157;SHT31;54086;50.126;8.710;2023-12-20T01:53:17;5.20;99.51
67157;SHT31;54086;50.126;8.710;2023-12-20T01:55:44;5.24;99.44
67157;SHT31;54086;50.126;8.710;2023-12-20T01:58:11;5.17;99.41
67157;SHT31;54086;50.126;8.710;2023-12-20T02:00:40;5.17;99.51
67157;SHT31;54086;50.126;8.710;2023-12-20T02:03:09;5.22;99.60
67157;SHT31;54086;50.126;8.710;2023-12-20T02:05:35;5.17;99.45
67157;SHT31;54086;50.126;8.710;2023-12-20T02:08:03;5.22;99.45
67157;SHT31;54086;50.126;8.710;2023-12-20T02:10:29;5.17;99.39
67157;SHT31;54086;50.126;8.710;2023-12-20T02:12:55;5.15;99.39
67157;SHT31;54086;50.126;8.710;2023-12-20T02:15:20;5.21;99.41
67157;SHT31;54086;50.126;8.710;2023-12-20T02:17:47;5.17;99.45
67157;SHT31;54086;50.126;8.710;2023-12-20T02:20:13;5.12;99.50
67157;SHT31;54086;50.126;8.710;2023-12-20T02:22:38;5.25;99.60
67157;SHT31;54086;50.126;8.710;2023-12-20T02:25:04;5.21;99.54
67157;SHT31;54086;50.126;8.710;2023-12-20T02:27:29;5.17;99.48
67157;SHT31;54086;50.126;8.710;2023-12-20T02:29:55;5.18;99.54
67157;SHT31;54086;50.126;8.710;2023-12-20T02:32:21;5.18;99.50
67157;SHT31;54086;50.126;8.710;2023-12-20T02:34:48;5.20;99.36
67157;SHT31;54086;50.126;8.710;2023-12-20T02:37:13;5.27;99.38
67157;SHT31;54086;50.126;8.710;2023-12-20T02:39:39;5.28;99.35
67157;SHT31;54086;50.126;8.710;2023-12-20T02:42:04;5.28;99.42
67157;SHT31;54086;50.126;8.710;2023-12-20T02:44:30;5.24;99.34
67157;SHT31;54086;50.126;8.710;2023-12-20T02:46:55;5.27;99.24
67157;SHT31;54086;50.126;8.710;2023-12-20T02:49:20;5.21;99.27
67157;SHT31;54086;50.126;8.710;2023-12-20T02:51:46;5.18;99.28
67157;SHT31;54086;50.126;8.710;2023-12-20T02:54:12;5.18;99.29
67157;SHT31;54086;50.126;8.710;2023-12-20T02:56:37;5.17;99.49
67157;SHT31;54086;50.126;8.710;2023-12-20T02:59:02;5.20;99.51
67157;SHT31;54086;50.126;8.710;2023-12-20T03:01:30;5.24;99.42
67157;SHT31;54086;50.126;8.710;2023-12-20T03:03:56;5.27;99.39
67157;SHT31;54086;50.126;8.710;2023-12-20T03:06:21;5.22;99.26
67157;SHT31;54086;50.126;8.710;2023-12-20T03:08:46;5.21;99.42
67157;SHT31;54086;50.126;8.710;2023-12-20T03:11:12;5.12;99.69
67157;SHT31;54086;50.126;8.710;2023-12-20T03:13:37;5.08;99.71
67157;SHT31;54086;50.126;8.710;2023-12-20T03:16:09;5.10;99.74
67157;SHT31;54086;50.126;8.710;2023-12-20T03:18:35;5.07;99.72
67157;SHT31;54086;50.126;8.710;2023-12-20T03:21:01;5.05;99.79
67157;SHT31;54086;50.126;8.710;2023-12-20T03:23:26;5.08;99.78
67157;SHT31;54086;50.126;8.710;2023-12-20T03:25:52;5.02;99.89
67157;SHT31;54086;50.126;8.710;2023-12-20T03:28:18;5.05;99.99
67157;SHT31;54086;50.126;8.710;2023-12-20T03:30:44;5.01;99.93
67157;SHT31;54086;50.126;8.710;2023-12-20T03:33:09;5.04;99.90
67157;SHT31;54086;50.126;8.710;2023-12-20T03:35:36;5.14;99.93
67157;SHT31;54086;50.126;8.710;2023-12-20T03:38:02;5.11;99.96
67157;SHT31;54086;50.126;8.710;2023-12-20T03:40:28;5.11;99.98
67157;SHT31;54086;50.126;8.710;2023-12-20T03:42:53;5.05;99.99
67157;SHT31;54086;50.126;8.710;2023-12-20T03:45:19;5.05;99.99
67157;SHT31;54086;50.126;8.710;2023-12-20T03:47:44;5.12;99.99
67157;SHT31;54086;50.126;8.710;2023-12-20T03:50:10;5.21;99.99
67157;SHT31;54086;50.126;8.710;2023-12-20T03:52:36;5.31;99.99
67157;SHT31;54086;50.126;8.710;2023-12-20T03:55:01;5.34;99.95
67157;SHT31;54086;50.126;8.710;2023-12-20T03:57:27;5.41;99.92
67157;SHT31;54086;50.126;8.710;2023-12-20T03:59:52;5.43;99.73
67157;SHT31;54086;50.126;8.710;2023-12-20T04:02:18;5.45;99.75
67157;SHT31;54086;50.126;8.710;2023-12-20T04:04:43;5.55;99.70
67157;SHT31;54086;50.126;8.710;2023-12-20T04:07:09;5.52;99.60
67157;SHT31;54086;50.126;8.710;2023-12-20T04:09:34;5.49;99.44
67157;SHT31;54086;50.126;8.710;2023-12-20T04:12:01;5.52;99.52
67157;SHT31;54086;50.126;8.710;2023-12-20T04:14:27;5.55;99.43
67157;SHT31;54086;50.126;8.710;2023-12-20T04:16:53;5.49;99.47
67157;SHT31;54086;50.126;8.710;2023-12-20T04:19:18;5.48;99.40
67157;SHT31;54086;50.126;8.710;2023-12-20T04:21:44;5.45;99.48
67157;SHT31;54086;50.126;8.710;2023-12-20T04:24:10;5.46;99.42
67157;SHT31;54086;50.126;8.710;2023-12-20T04:26:36;5.45;99.44
67157;SHT31;54086;50.126;8.710;2023-12-20T04:29:01;5.38;99.54
67157;SHT31;54086;50.126;8.710;2023-12-20T04:31:27;5.43;99.57
67157;SHT31;54086;50.126;8.710;2023-12-20T04:33:52;5.39;99.61
67157;SHT31;54086;50.126;8.710;2023-12-20T04:36:18;5.38;99.60
67157;SHT31;54086;50.126;8.710;2023-12-20T04:38:44;5.41;99.81
67157;SHT31;54086;50.126;8.710;2023-12-20T04:41:09;5.39;99.58
67157;SHT31;54086;50.126;8.710;2023-12-20T04:43:34;5.43;99.67
67157;SHT31;54086;50.126;8.710;2023-12-20T04:46:00;5.42;99.59
67157;SHT31;54086;50.126;8.710;2023-12-20T04:48:25;5.42;99.54
67157;SHT31;54086;50.126;8.710;2023-12-20T04:50:51;5.36;99.67
67157;SHT31;54086;50.126;8.710;2023-12-20T04:53:16;5.36;99.68
67157;SHT31;54086;50.126;8.710;2023-12-20T04:55:42;5.36;99.60
67157;SHT31;54086;50.126;8.710;2023-12-20T04:58:07;5.38;99.66
67157;SHT31;54086;50.126;8.710;2023-12-20T05:00:33;5.31;99.73
67157;SHT31;54086;50.126;8.710;2023-12-20T05:02:58;5.36;99.77
67157;SHT31;54086;50.126;8.710;2023-12-20T05:05:24;5.42;99.89
67157;SHT31;54086;50.126;8.710;2023-12-20T05:07:49;5.43;99.84
67157;SHT31;54086;50.126;8.710;2023-12-20T05:10:14;5.50;99.79
67157;SHT31;54086;50.126;8.710;2023-12-20T05:12:40;5.53;99.61
67157;SHT31;54086;50.126;8.710;2023-12-20T05:15:06;5.59;99.61
67157;SHT31;54086;50.126;8.710;2023-12-20T05:17:31;5.65;99.34
67157;SHT31;54086;50.126;8.710;2023-12-20T05:19:57;5.74;99.36
67157;SHT31;54086;50.126;8.710;2023-12-20T05:22:22;5.73;99.04
67157;SHT31;54086;50.126;8.710;2023-12-20T05:24:48;5.72;98.82
67157;SHT31;54086;50.126;8.710;2023-12-20T05:27:13;5.74;98.55
67157;SHT31;54086;50.126;8.710;2023-12-20T05:29:39;5.76;98.42
67157;SHT31;54086;50.126;8.710;2023-12-20T05:32:04;5.66;98.41
67157;SHT31;54086;50.126;8.710;2023-12-20T05:34:30;5.65;98.44
67157;SHT31;54086;50.126;8.710;2023-12-20T05:36:57;5.66;98.33
67157;SHT31;54086;50.126;8.710;2023-12-20T05:39:22;5.65;98.05
67157;SHT31;54086;50.126;8.710;2023-12-20T05:41:48;5.67;97.87
67157;SHT31;54086;50.126;8.710;2023-12-20T05:44:13;5.76;97.14
67157;SHT31;54086;50.126;8.710;2023-12-20T05:46:39;5.80;96.66
67157;SHT31;54086;50.126;8.710;2023-12-20T05:49:05;5.85;96.19
67157;SHT31;54086;50.126;8.710;2023-12-20T05:51:31;5.93;95.54
67157;SHT31;54086;50.126;8.710;2023-12-20T05:53:56;5.94;95.29
67157;SHT31;54086;50.126;8.710;2023-12-20T05:56:21;5.94;95.04
67157;SHT31;54086;50.126;8.710;2023-12-20T05:58:47;5.94;94.27
67157;SHT31;54086;50.126;8.710;2023-12-20T06:01:14;5.94;94.31
67157;SHT31;54086;50.126;8.710;2023-12-20T06:03:41;5.96;94.21
67157;SHT31;54086;50.126;8.710;2023-12-20T06:06:07;5.93;94.52
67157;SHT31;54086;50.126;8.710;2023-12-20T06:08:32;5.91;93.78
67157;SHT31;54086;50.126;8.710;2023-12-20T06:10:58;5.94;93.71
67157;SHT31;54086;50.126;8.710;2023-12-20T06:13:23;6.00;93.81
67157;SHT31;54086;50.126;8.710;2023-12-20T06:15:49;6.01;93.53
67157;SHT31;54086;50.126;8.710;2023-12-20T06:18:14;5.96;93.40
67157;SHT31;54086;50.126;8.710;2023-12-20T06:20:39;5.93;93.35
67157;SHT31;54086;50.126;8.710;2023-12-20T06:23:05;5.90;93.35
67157;SHT31;54086;50.126;8.710;2023-12-20T06:25:30;5.93;92.82
67157;SHT31;54086;50.126;8.710;2023-12-20T06:27:56;5.83;93.68
67157;SHT31;54086;50.126;8.710;2023-12-20T06:30:21;5.80;94.22
67157;SHT31;54086;50.126;8.710;2023-12-20T06:32:47;5.85;94.04
67157;SHT31;54086;50.126;8.710;2023-12-20T06:35:13;5.76;93.84
67157;SHT31;54086;50.126;8.710;2023-12-20T06:37:38;5.74;94.13
67157;SHT31;54086;50.126;8.710;2023-12-20T06:40:09;5.69;93.29
67157;SHT31;54086;50.126;8.710;2023-12-20T06:42:34;5.67;93.77
67157;SHT31;54086;50.126;8.710;2023-12-20T06:45:00;5.63;94.37
67157;SHT31;54086;50.126;8.710;2023-12-20T06:47:25;5.63;94.46
67157;SHT31;54086;50.126;8.710;2023-12-20T06:49:51;5.63;94.32
67157;SHT31;54086;50.126;8.710;2023-12-20T06:52:17;5.58;94.61
67157;SHT31;54086;50.126;8.710;2023-12-20T06:54:42;5.50;94.66
67157;SHT31;54086;50.126;8.710;2023-12-20T06:57:08;5.53;94.65
67157;SHT31;54086;50.126;8.710;2023-12-20T06:59:38;5.52;94.61
67157;SHT31;54086;50.126;8.710;2023-12-20T07:02:04;5.55;94.37
67157;SHT31;54086;50.126;8.710;2023-12-20T07:04:30;5.63;94.11
67157;SHT31;54086;50.126;8.710;2023-12-20T07:06:56;5.56;94.29
67157;SHT31;54086;50.126;8.710;2023-12-20T07:09:22;5.65;94.29
67157;SHT31;54086;50.126;8.710;2023-12-20T07:11:48;5.67;94.46
67157;SHT31;54086;50.126;8.710;2023-12-20T07:14:14;5.77;94.38
67157;SHT31;54086;50.126;8.710;2023-12-20T07:16:39;5.73;93.63
67157;SHT31;54086;50.126;8.710;2023-12-20T07:19:05;5.67;93.96
67157;SHT31;54086;50.126;8.710;2023-12-20T07:21:31;5.69;94.43
67157;SHT31;54086;50.126;8.710;2023-12-20T07:23:57;5.66;94.63
67157;SHT31;54086;50.126;8.710;2023-12-20T07:26:22;5.67;95.09
67157;SHT31;54086;50.126;8.710;2023-12-20T07:28:48;5.74;95.00
67157;SHT31;54086;50.126;8.710;2023-12-20T07:31:15;5.73;94.70
67157;SHT31;54086;50.126;8.710;2023-12-20T07:33:41;5.58;94.89
67157;SHT31;54086;50.126;8.710;2023-12-20T07:36:06;5.59;94.90
67157;SHT31;54086;50.126;8.710;2023-12-20T07:38:32;5.53;94.74
67157;SHT31;54086;50.126;8.710;2023-12-20T07:40:58;5.45;95.11
67157;SHT31;54086;50.126;8.710;2023-12-20T07:43:23;5.46;94.97
67157;SHT31;54086;50.126;8.710;2023-12-20T07:45:48;5.46;94.42
67157;SHT31;54086;50.126;8.710;2023-12-20T07:48:14;5.56;94.67
67157;SHT31;54086;50.126;8.710;2023-12-20T07:50:39;5.53;93.93
67157;SHT31;54086;50.126;8.710;2023-12-20T07:53:05;5.58;93.74
67157;SHT31;54086;50.126;8.710;2023-12-20T07:55:31;5.63;92.97
67157;SHT31;54086;50.126;8.710;2023-12-20T07:57:57;5.70;92.71
67157;SHT31;54086;50.126;8.710;2023-12-20T08:00:23;5.77;92.77
67157;SHT31;54086;50.126;8.710;2023-12-20T08:02:48;5.85;92.14
67157;SHT31;54086;50.126;8.710;2023-12-20T08:05:14;5.87;92.15
67157;SHT31;54086;50.126;8.710;2023-12-20T08:07:39;5.90;92.61
67157;SHT31;54086;50.126;8.710;2023-12-20T08:10:05;5.91;92.45
67157;SHT31;54086;50.126;8.710;2023-12-20T08:12:31;5.93;92.14
67157;SHT31;54086;50.126;8.710;2023-12-20T08:14:56;5.90;91.61
67157;SHT31;54086;50.126;8.710;2023-12-20T08:17:22;5.90;91.98
67157;SHT31;54086;50.126;8.710;2023-12-20T08:19:48;5.91;92.10
67157;SHT31;54086;50.126;8.710;2023-12-20T08:22:14;5.94;92.07
67157;SHT31;54086;50.126;8.710;2023-12-20T08:24:39;6.01;92.18
67157;SHT31;54086;50.126;8.710;2023-12-20T08:27:05;5.93;92.13
67157;SHT31;54086;50.126;8.710;2023-12-20T08:29:30;5.91;92.13
67157;SHT31;54086;50.126;8.710;2023-12-20T08:31:56;5.85;92.46
67157;SHT31;54086;50.126;8.710;2023-12-20T08:34:22;5.77;92.52
67157;SHT31;54086;50.126;8.710;2023-12-20T08:36:50;5.73;92.75
67157;SHT31;54086;50.126;8.710;2023-12-20T08:39:15;5.74;92.70
67157;SHT31;54086;50.126;8.710;2023-12-20T08:41:41;5.90;92.39
67157;SHT31;54086;50.126;8.710;2023-12-20T08:44:06;6.13;91.83
67157;SHT31;54086;50.126;8.710;2023-12-20T08:46:32;6.16;91.81
67157;SHT31;54086;50.126;8.710;2023-12-20T08:49:02;5.99;91.33
67157;SHT31;54086;50.126;8.710;2023-12-20T08:51:28;5.99;91.34
67157;SHT31;54086;50.126;8.710;2023-12-20T08:53:54;6.03;91.88
67157;SHT31;54086;50.126;8.710;2023-12-20T08:56:20;5.99;91.87
67157;SHT31;54086;50.126;8.710;2023-12-20T08:58:46;5.99;92.18
67157;SHT31;54086;50.126;8.710;2023-12-20T09:01:12;5.97;91.93
67157;SHT31;54086;50.126;8.710;2023-12-20T09:03:37;6.18;91.27
67157;SHT31;54086;50.126;8.710;2023-12-20T09:06:03;6.27;91.33
67157;SHT31;54086;50.126;8.710;2023-12-20T09:08:28;6.16;91.41
67157;SHT31;54086;50.126;8.710;2023-12-20T09:10:54;6.32;91.19
67157;SHT31;54086;50.126;8.710;2023-12-20T09:13:19;6.32;91.30
67157;SHT31;54086;50.126;8.710;2023-12-20T09:15:46;6.28;91.92
67157;SHT31;54086;50.126;8.710;2023-12-20T09:18:11;6.31;91.68
67157;SHT31;54086;50.126;8.710;2023-12-20T09:20:37;6.35;91.36
67157;SHT31;54086;50.126;8.710;2023-12-20T09:23:02;6.38;91.78
67157;SHT31;54086;50.126;8.710;2023-12-20T09:25:28;6.35;91.83
67157;SHT31;54086;50.126;8.710;2023-12-20T09:27:55;6.34;91.66
67157;SHT31;54086;50.126;8.710;2023-12-20T09:30:20;6.38;91.53
67157;SHT31;54086;50.126;8.710;2023-12-20T09:32:46;6.52;91.70
67157;SHT31;54086;50.126;8.710;2023-12-20T09:35:11;6.83;91.29
67157;SHT31;54086;50.126;8.710;2023-12-20T09:37:36;6.93;90.72
67157;SHT31;54086;50.126;8.710;2023-12-20T09:40:03;6.92;90.89
67157;SHT31;54086;50.126;8.710;2023-12-20T09:45:13;6.88;91.53
67157;SHT31;54086;50.126;8.710;2023-12-20T09:47:44;6.90;91.20
67157;SHT31;54086;50.126;8.710;2023-12-20T09:50:12;6.89;91.40
67157;SHT31;54086;50.126;8.710;2023-12-20T09:52:39;6.92;90.93
67157;SHT31;54086;50.126;8.710;2023-12-20T09:55:06;6.89;90.60
67157;SHT31;54086;50.126;8.710;2023-12-20T09:57:33;6.82;90.63
67157;SHT31;54086;50.126;8.710;2023-12-20T09:59:59;6.78;90.80
67157;SHT31;54086;50.126;8.710;2023-12-20T10:02:25;6.79;90.82
67157;SHT31;54086;50.126;8.710;2023-12-20T10:04:55;6.56;91.05
67157;SHT31;54086;50.126;8.710;2023-12-20T10:07:21;6.59;91.36
67157;SHT31;54086;50.126;8.710;2023-12-20T10:09:47;6.72;91.07
67157;SHT31;54086;50.126;8.710;2023-12-20T10:12:13;6.72;91.05
67157;SHT31;54086;50.126;8.710;2023-12-20T10:14:39;6.68;91.30
67157;SHT31;54086;50.126;8.710;2023-12-20T10:17:06;6.61;91.47
67157;SHT31;54086;50.126;8.710;2023-12-20T10:19:32;6.49;91.44
67157;SHT31;54086;50.126;8.710;2023-12-20T10:22:04;6.69;91.48
67157;SHT31;54086;50.126;8.710;2023-12-20T10:24:31;6.73;91.10
67157;SHT31;54086;50.126;8.710;2023-12-20T10:27:03;6.86;91.09
67157;SHT31;54086;50.126;8.710;2023-12-20T10:29:33;6.78;91.17
67157;SHT31;54086;50.126;8.710;2023-12-20T10:31:58;6.73;91.19
67157;SHT31;54086;50.126;8.710;2023-12-20T10:34:24;6.73;91.13
67157;SHT31;54086;50.126;8.710;2023-12-20T10:36:49;6.80;91.30
67157;SHT31;54086;50.126;8.710;2023-12-20T10:39:17;6.73;91.25
67157;SHT31;54086;50.126;8.710;2023-12-20T10:41:43;6.78;91.39
67157;SHT31;54086;50.126;8.710;2023-12-20T10:44:10;6.82;91.27
67157;SHT31;54086;50.126;8.710;2023-12-20T10:46:37;7.00;90.68
67157;SHT31;54086;50.126;8.710;2023-12-20T10:49:06;7.07;90.51
67157;SHT31;54086;50.126;8.710;2023-12-20T10:51:34;7.17;90.37
67157;SHT31;54086;50.126;8.710;2023-12-20T10:54:00;7.35;90.10
67157;SHT31;54086;50.126;8.710;2023-12-20T10:56:29;7.43;89.60
67157;SHT31;54086;50.126;8.710;2023-12-20T10:58:59;7.61;89.64
67157;SHT31;54086;50.126;8.710;2023-12-20T11:01:28;7.55;89.20
67157;SHT31;54086;50.126;8.710;2023-12-20T11:03:54;7.62;89.35
67157;SHT31;54086;50.126;8.710;2023-12-20T11:14:41;7.83;88.63
67157;SHT31;54086;50.126;8.710;2023-12-20T11:17:10;7.93;88.32
67157;SHT31;54086;50.126;8.710;2023-12-20T11:22:27;8.06;87.70
67157;SHT31;54086;50.126;8.710;2023-12-20T11:24:53;7.99;86.94
67157;SHT31;54086;50.126;8.710;2023-12-20T11:27:21;8.06;87.11
67157;SHT31;54086;50.126;8.710;2023-12-20T11:29:58;8.10;86.36
67157;SHT31;54086;50.126;8.710;2023-12-20T11:34:59;8.09;86.14
67157;SHT31;54086;50.126;8.710;2023-12-20T11:37:32;8.02;86.38
67157;SHT31;54086;50.126;8.710;2023-12-20T11:40:05;8.05;86.60
67157;SHT31;54086;50.126;8.710;2023-12-20T11:42:43;7.99;86.51
67157;SHT31;54086;50.126;8.710;2023-12-20T11:45:09;7.93;86.44
67157;SHT31;54086;50.126;8.710;2023-12-20T11:47:40;7.93;85.98
67157;SHT31;54086;50.126;8.710;2023-12-20T11:50:06;7.89;86.15
67157;SHT31;54086;50.126;8.710;2023-12-20T11:52:32;7.88;85.92
67157;SHT31;54086;50.126;8.710;2023-12-20T11:54:57;7.85;85.71
67157;SHT31;54086;50.126;8.710;2023-12-20T11:57:23;7.89;85.68
67157;SHT31;54086;50.126;8.710;2023-12-20T11:59:49;7.89;84.49
67157;SHT31;54086;50.126;8.710;2023-12-20T12:02:15;7.96;85.20
67157;SHT31;54086;50.126;8.710;2023-12-20T12:04:41;7.96;84.98
67157;SHT31;54086;50.126;8.710;2023-12-20T12:07:07;7.93;84.03
67157;SHT31;54086;50.126;8.710;2023-12-20T12:09:32;8.03;84.31
67157;SHT31;54086;50.126;8.710;2023-12-20T12:11:58;8.02;83.65
67157;SHT31;54086;50.126;8.710;2023-12-20T12:14:24;8.06;82.77
67157;SHT31;54086;50.126;8.710;2023-12-20T12:16:50;8.20;82.59
67157;SHT31;54086;50.126;8.710;2023-12-20T12:19:24;8.23;82.25
67157;SHT31;54086;50.126;8.710;2023-12-20T12:21:51;8.33;81.96
67157;SHT31;54086;50.126;8.710;2023-12-20T12:24:20;8.26;82.09
67157;SHT31;54086;50.126;8.710;2023-12-20T12:26:50;8.39;81.59
67157;SHT31;54086;50.126;8.710;2023-12-20T12:29:17;8.40;81.74
67157;SHT31;54086;50.126;8.710;2023-12-20T12:31:56;8.49;81.63
67157;SHT31;54086;50.126;8.710;2023-12-20T12:34:22;8.57;82.01
67157;SHT31;54086;50.126;8.710;2023-12-20T12:36:48;8.61;81.44
67157;SHT31;54086;50.126;8.710;2023-12-20T12:39:14;8.46;80.76
67157;SHT31;54086;50.126;8.710;2023-12-20T12:41:42;8.40;81.59
67157;SHT31;54086;50.126;8.710;2023-12-20T12:44:07;8.41;81.54
67157;SHT31;54086;50.126;8.710;2023-12-20T12:46:33;8.44;81.78
67157;SHT31;54086;50.126;8.710;2023-12-20T12:48:58;8.40;81.83
67157;SHT31;54086;50.126;8.710;2023-12-20T12:51:24;8.30;81.61
67157;SHT31;54086;50.126;8.710;2023-12-20T12:53:55;8.29;81.67
67157;SHT31;54086;50.126;8.710;2023-12-20T12:56:21;8.39;81.49
67157;SHT31;54086;50.126;8.710;2023-12-20T12:58:48;8.36;81.66
67157;SHT31;54086;50.126;8.710;2023-12-20T13:01:13;8.28;81.63
67157;SHT31;54086;50.126;8.710;2023-12-20T13:03:40;8.28;81.82
67157;SHT31;54086;50.126;8.710;2023-12-20T13:06:06;8.30;81.92
67157;SHT31;54086;50.126;8.710;2023-12-20T13:08:34;8.29;81.75
67157;SHT31;54086;50.126;8.710;2023-12-20T13:11:00;8.25;81.93
67157;SHT31;54086;50.126;8.710;2023-12-20T13:13:27;8.28;82.07
67157;SHT31;54086;50.126;8.710;2023-12-20T13:15:53;8.40;82.00
67157;SHT31;54086;50.126;8.710;2023-12-20T13:18:21;8.54;81.48
67157;SHT31;54086;50.126;8.710;2023-12-20T13:20:50;8.57;81.57
67157;SHT31;54086;50.126;8.710;2023-12-20T13:23:16;8.51;81.78
67157;SHT31;54086;50.126;8.710;2023-12-20T13:25:43;8.39;81.77
67157;SHT31;54086;50.126;8.710;2023-12-20T13:28:10;8.51;82.04
67157;SHT31;54086;50.126;8.710;2023-12-20T13:30:45;8.51;82.09
67157;SHT31;54086;50.126;8.710;2023-12-20T13:33:23;8.37;82.43
67157;SHT31;54086;50.126;8.710;2023-12-20T13:35:49;8.17;82.61
67157;SHT31;54086;50.126;8.710;2023-12-20T13:38:15;7.98;83.13
67157;SHT31;54086;50.126;8.710;2023-12-20T13:40:43;8.06;83.29
67157;SHT31;54086;50.126;8.710;2023-12-20T13:43:09;8.02;83.41
67157;SHT31;54086;50.126;8.710;2023-12-20T13:45:37;7.98;83.43
67157;SHT31;54086;50.126;8.710;2023-12-20T13:48:03;7.96;83.52
67157;SHT31;54086;50.126;8.710;2023-12-20T13:50:31;7.96;83.38
67157;SHT31;54086;50.126;8.710;2023-12-20T13:52:57;8.02;83.67
67157;SHT31;54086;50.126;8.710;2023-12-20T13:55:22;8.12;83.79
67157;SHT31;54086;50.126;8.710;2023-12-20T13:57:51;8.12;83.83
67157;SHT31;54086;50.126;8.710;2023-12-20T14:00:17;8.13;83.96
67157;SHT31;54086;50.126;8.710;2023-12-20T14:02:43;8.02;83.97
67157;SHT31;54086;50.126;8.710;2023-12-20T14:05:15;8.02;84.19
67157;SHT31;54086;50.126;8.710;2023-12-20T14:07:45;8.05;84.28
67157;SHT31;54086;50.126;8.710;2023-12-20T14:10:15;7.99;84.30
67157;SHT31;54086;50.126;8.710;2023-12-20T14:12:43;7.96;84.40
67157;SHT31;54086;50.126;8.710;2023-12-20T14:15:13;7.96;84.65
67157;SHT31;54086;50.126;8.710;2023-12-20T14:17:40;8.03;84.71
67157;SHT31;54086;50.126;8.710;2023-12-20T14:20:15;7.96;84.77
67157;SHT31;54086;50.126;8.710;2023-12-20T14:22:41;7.99;84.86
67157;SHT31;54086;50.126;8.710;2023-12-20T14:25:13;7.95;85.22
67157;SHT31;54086;50.126;8.710;2023-12-20T14:27:40;7.93;85.23
67157;SHT31;54086;50.126;8.710;2023-12-20T14:30:07;7.88;85.39
67157;SHT31;54086;50.126;8.710;2023-12-20T14:32:34;7.88;85.47
67157;SHT31;54086;50.126;8.710;2023-12-20T14:35:06;7.81;85.64
67157;SHT31;54086;50.126;8.710;2023-12-20T14:37:45;7.79;85.78
67157;SHT31;54086;50.126;8.710;2023-12-20T14:40:21;7.79;85.91
67157;SHT31;54086;50.126;8.710;2023-12-20T14:42:47;7.79;86.06
67157;SHT31;54086;50.126;8.710;2023-12-20T14:45:14;7.74;85.92
67157;SHT31;54086;50.126;8.710;2023-12-20T14:47:41;7.74;86.10
67157;SHT31;54086;50.126;8.710;2023-12-20T14:50:07;7.77;85.98
67157;SHT31;54086;50.126;8.710;2023-12-20T14:52:33;7.78;86.09
67157;SHT31;54086;50.126;8.710;2023-12-20T14:55:03;7.82;86.19
67157;SHT31;54086;50.126;8.710;2023-12-20T14:57:28;7.78;85.63
67157;SHT31;54086;50.126;8.710;2023-12-20T14:59:58;7.77;85.89
67157;SHT31;54086;50.126;8.710;2023-12-20T15:02:24;7.74;85.89
67157;SHT31;54086;50.126;8.710;2023-12-20T15:04:50;7.77;86.02
67157;SHT31;54086;50.126;8.710;2023-12-20T15:07:16;7.81;85.74
67157;SHT31;54086;50.126;8.710;2023-12-20T15:09:42;7.85;85.88
67157;SHT31;54086;50.126;8.710;2023-12-20T15:12:11;7.77;85.74
67157;SHT31;54086;50.126;8.710;2023-12-20T15:14:37;7.77;85.76
67157;SHT31;54086;50.126;8.710;2023-12-20T15:17:03;7.72;85.79
67157;SHT31;54086;50.126;8.710;2023-12-20T15:19:30;7.75;86.00
67157;SHT31;54086;50.126;8.710;2023-12-20T15:21:56;7.78;85.91
67157;SHT31;54086;50.126;8.710;2023-12-20T15:24:24;7.67;86.07
67157;SHT31;54086;50.126;8.710;2023-12-20T15:26:54;7.65;86.38
67157;SHT31;54086;50.126;8.710;2023-12-20T15:29:19;7.67;86.19
67157;SHT31;54086;50.126;8.710;2023-12-20T15:31:48;7.65;86.44
67157;SHT31;54086;50.126;8.710;2023-12-20T15:34:16;7.67;86.59
67157;SHT31;54086;50.126;8.710;2023-12-20T15:36:55;7.58;86.48
67157;SHT31;54086;50.126;8.710;2023-12-20T15:39:21;7.61;86.51
67157;SHT31;54086;50.126;8.710;2023-12-20T15:41:46;7.55;86.60
67157;SHT31;54086;50.126;8.710;2023-12-20T15:44:12;7.62;86.88
67157;SHT31;54086;50.126;8.710;2023-12-20T15:46:38;7.60;86.74
67157;SHT31;54086;50.126;8.710;2023-12-20T15:49:04;7.60;86.85
67157;SHT31;54086;50.126;8.710;2023-12-20T15:51:30;7.58;86.91
67157;SHT31;54086;50.126;8.710;2023-12-20T15:53:55;7.57;87.03
67157;SHT31;54086;50.126;8.710;2023-12-20T15:56:22;7.52;87.13